RJSF/FKS METAR and TAF weather

Enter ICAO airport designator
Station Type Date Time Source
RJSF METAR 2020/07/06 11:00 UTC NOAA

RJSF 061100Z 17010KT 130V190 8000 -SHRA FEW005 SCT020 BKN030 23/22 Q1008


Station Type Date Time Source
RJSF Decoded METAR 2020/07/06 11:00 UTC NOAA

Fukushima Airport, Japan (RJSF) 37-14N 140-26E 375M
Jul 06, 2020 - 07:00 AM EDT / 2020.07.06 1100 UTC
Wind: from the S (170 degrees) at 12 MPH (10 KT) (direction variable):0
Visibility: 4 mile(s):0
Sky conditions: mostly cloudy
Weather: light rain showers
Temperature: 73 F (23 C)
Dew Point: 71 F (22 C)
Relative Humidity: 94%
Pressure (altimeter): 29.77 in. Hg (1008 hPa)
ob: RJSF 061100Z 17010KT 130V190 8000 -SHRA FEW005 SCT020 BKN030 23/22 Q1008
cycle: 11

Station Type Date Time Source
RJSF TAF 2020/07/06 18:30 UTC NOAA

TAF RJSF 061708Z 0618/0800 20006KT 9999 FEW008 BKN015 BKN020
TEMPO 0618/0621 3000 -SHRA BR FEW005 BKN008 BKN015
TEMPO 0703/0706 4000 SHRA BR
TEMPO 0718/0800 3000 SHRA BR FEW003 BKN005 BKN008

Example: see airport list